createdAt,value
2022-08-19T00:02:16.010Z,84.20
2022-08-19T00:04:43.371Z,84.40
2022-08-19T00:07:10.749Z,84.30
2022-08-19T00:09:38.179Z,84.40
2022-08-19T00:12:05.781Z,84.40
2022-08-19T00:14:33.187Z,84.40
2022-08-19T00:17:01.387Z,84.40
2022-08-19T00:19:29.055Z,84.50
2022-08-19T00:21:57.485Z,84.60
2022-08-19T00:24:25.422Z,84.70
2022-08-19T00:26:53.507Z,84.60
2022-08-19T00:29:22.484Z,84.70
2022-08-19T00:31:51.404Z,84.90
2022-08-19T00:34:18.904Z,84.90
2022-08-19T00:36:46.801Z,84.90
2022-08-19T00:39:15.401Z,84.90
2022-08-19T00:41:44.181Z,85.30
2022-08-19T00:44:13.895Z,85.20
2022-08-19T00:46:44.728Z,85.30
2022-08-19T00:49:43.116Z,85.50
2022-08-19T00:52:15.116Z,85.60
2022-08-19T00:54:44.544Z,85.80
2022-08-19T00:57:16.079Z,85.90
2022-08-19T00:59:56.226Z,86.40
2022-08-19T01:02:30.631Z,86.40
2022-08-19T01:04:58.983Z,86.70
2022-08-19T01:07:26.448Z,86.80
2022-08-19T01:09:54.003Z,87.10
2022-08-19T01:12:22.780Z,87.20
2022-08-19T01:14:51.580Z,87.20
2022-08-19T01:17:20.374Z,87.30
2022-08-19T01:19:49.945Z,87.40
2022-08-19T01:22:36.161Z,87.50
2022-08-19T01:25:06.973Z,87.50
2022-08-19T01:27:44.618Z,87.80
2022-08-19T01:30:26.214Z,88.20
2022-08-19T01:32:55.341Z,88.30
2022-08-19T01:35:24.842Z,88.50
2022-08-19T01:37:58.785Z,89.00
2022-08-19T01:40:32.098Z,89.10
2022-08-19T01:43:00.076Z,89.20
2022-08-19T01:45:29.955Z,89.40
2022-08-19T01:48:02.173Z,89.70
2022-08-19T01:50:32.353Z,90.10
2022-08-19T01:53:05.929Z,90.40
2022-08-19T01:55:41.199Z,90.50
2022-08-19T01:58:15.355Z,90.60
2022-08-19T02:00:44.884Z,90.90
2022-08-19T02:03:13.100Z,91.00
2022-08-19T02:05:41.518Z,91.10
2022-08-19T02:08:09.632Z,91.20
2022-08-19T02:10:42.195Z,91.40
2022-08-19T02:13:09.838Z,91.50
2022-08-19T02:15:38.660Z,91.60
2022-08-19T02:18:07.015Z,91.70
2022-08-19T02:20:35.160Z,91.80
2022-08-19T02:23:02.555Z,91.80
2022-08-19T02:25:29.999Z,91.90
2022-08-19T02:27:58.115Z,91.90
2022-08-19T02:30:26.162Z,91.90
2022-08-19T02:32:54.328Z,92.00
2022-08-19T02:35:22.086Z,92.00
2022-08-19T02:38:08.449Z,92.20
2022-08-19T02:40:35.996Z,92.20
2022-08-19T02:43:09.175Z,92.20
2022-08-19T02:45:40.421Z,92.20
2022-08-19T02:48:21.651Z,92.20
2022-08-19T02:50:56.133Z,92.20
2022-08-19T02:53:25.412Z,92.20
2022-08-19T02:55:53.075Z,92.20
2022-08-19T02:58:22.795Z,92.20
2022-08-19T03:00:53.805Z,92.20
2022-08-19T03:03:22.726Z,92.20
2022-08-19T03:05:56.125Z,92.20
2022-08-19T03:08:25.513Z,92.20
2022-08-19T03:10:54.193Z,92.20
2022-08-19T03:13:21.678Z,92.20
2022-08-19T03:15:49.724Z,92.20
2022-08-19T03:18:18.418Z,92.20
2022-08-19T03:20:50.167Z,92.20
2022-08-19T03:23:18.785Z,92.20
2022-08-19T03:25:58.461Z,92.20
2022-08-19T03:28:38.600Z,92.20
2022-08-19T03:31:43.843Z,92.20
2022-08-19T03:34:01.577Z,92.20
2022-08-19T03:36:31.342Z,92.20
2022-08-19T03:39:00.955Z,92.20
2022-08-19T03:41:44.384Z,92.20
2022-08-19T03:44:18.509Z,92.20
2022-08-19T03:46:48.062Z,92.20
2022-08-19T03:49:15.643Z,92.20
2022-08-19T03:51:47.065Z,92.20
2022-08-19T03:54:16.576Z,92.20
2022-08-19T03:56:46.757Z,92.20
2022-08-19T03:59:18.421Z,92.20
2022-08-19T04:01:46.149Z,92.20
2022-08-19T04:04:13.990Z,92.20
2022-08-19T04:06:42.019Z,92.20
2022-08-19T04:09:11.997Z,92.20
2022-08-19T04:11:44.818Z,92.20
2022-08-19T04:14:22.458Z,92.20
2022-08-19T04:16:50.552Z,92.20
2022-08-19T04:19:19.452Z,92.20
2022-08-19T04:21:49.842Z,92.20
2022-08-19T04:24:18.115Z,92.20
2022-08-19T04:26:45.878Z,92.20
2022-08-19T04:29:23.284Z,92.20
2022-08-19T04:31:51.504Z,92.20
2022-08-19T04:34:25.689Z,92.20
2022-08-19T04:36:55.181Z,92.20
2022-08-19T04:39:45.737Z,92.20
2022-08-19T04:42:33.029Z,92.20
2022-08-19T04:45:00.632Z,92.20
2022-08-19T04:47:48.178Z,92.20
2022-08-19T04:50:16.717Z,92.20
2022-08-19T04:52:44.210Z,92.20
2022-08-19T04:55:12.928Z,92.20
2022-08-19T04:57:47.351Z,92.20
2022-08-19T05:00:15.013Z,92.20
2022-08-19T05:02:43.251Z,92.20
2022-08-19T05:05:11.252Z,92.20
2022-08-19T05:07:38.696Z,92.20
2022-08-19T05:10:07.324Z,92.20
2022-08-19T05:12:35.592Z,92.10
2022-08-19T05:15:05.408Z,91.90
2022-08-19T05:17:37.740Z,91.40
2022-08-19T05:20:27.035Z,91.20
2022-08-19T05:22:54.543Z,91.20
2022-08-19T05:25:23.057Z,90.80
2022-08-19T05:27:50.953Z,90.30
2022-08-19T05:30:18.905Z,90.30
2022-08-19T05:33:01.526Z,90.50
2022-08-19T05:35:30.225Z,90.60
2022-08-19T05:38:02.397Z,90.80
2022-08-19T05:40:31.197Z,90.40
2022-08-19T05:42:59.259Z,90.50
2022-08-19T05:45:27.060Z,90.20
2022-08-19T05:47:54.408Z,89.70
2022-08-19T05:50:22.336Z,89.00
2022-08-19T05:52:50.700Z,88.40
2022-08-19T05:55:21.420Z,88.50
2022-08-19T05:57:48.737Z,88.20
2022-08-19T06:00:18.662Z,86.90
2022-08-19T06:02:48.850Z,86.70
2022-08-19T06:05:16.245Z,86.40
2022-08-19T06:07:43.747Z,86.00
2022-08-19T06:10:12.793Z,85.90
2022-08-19T06:12:40.738Z,85.10
2022-08-19T06:15:13.664Z,84.70
2022-08-19T06:17:46.991Z,84.00
2022-08-19T06:20:16.149Z,83.50
2022-08-19T06:22:46.272Z,83.60
2022-08-19T06:25:15.590Z,83.70
2022-08-19T06:30:30.907Z,82.30
2022-08-19T06:32:58.338Z,82.10
2022-08-19T06:35:26.615Z,81.90
2022-08-19T06:37:55.054Z,81.60
2022-08-19T06:40:23.013Z,81.00
2022-08-19T06:42:54.829Z,79.80
2022-08-19T06:45:25.323Z,79.30
2022-08-19T06:48:02.434Z,79.20
2022-08-19T06:50:30.572Z,79.80
2022-08-19T06:52:57.860Z,79.70
2022-08-19T06:55:31.485Z,79.40
2022-08-19T06:58:04.988Z,78.60
2022-08-19T07:00:32.895Z,78.70
2022-08-19T07:03:04.543Z,77.70
2022-08-19T07:05:45.665Z,77.60
2022-08-19T07:08:14.420Z,77.50
2022-08-19T07:10:46.221Z,77.90
2022-08-19T07:13:13.688Z,78.00
2022-08-19T07:15:42.152Z,78.20
2022-08-19T07:18:11.609Z,78.50
2022-08-19T07:20:44.349Z,77.10
2022-08-19T07:23:17.530Z,77.10
2022-08-19T07:25:52.790Z,76.40
2022-08-19T07:28:24.795Z,76.10
2022-08-19T07:30:53.749Z,75.20
2022-08-19T07:33:22.219Z,75.40
2022-08-19T07:35:53.447Z,74.30
2022-08-19T07:38:20.766Z,74.50
2022-08-19T07:40:48.232Z,74.80
2022-08-19T07:43:24.514Z,73.70
2022-08-19T07:45:59.819Z,72.10
2022-08-19T07:48:28.764Z,73.00
2022-08-19T07:50:59.297Z,73.70
2022-08-19T07:53:26.764Z,73.70
2022-08-19T07:55:54.632Z,73.40
2022-08-19T07:58:23.607Z,72.20
2022-08-19T08:00:52.488Z,71.20
2022-08-19T08:03:22.238Z,71.30
2022-08-19T08:06:07.924Z,71.30
2022-08-19T08:08:53.800Z,71.40
2022-08-19T08:11:23.921Z,71.30
2022-08-19T08:14:01.453Z,71.40
2022-08-19T08:16:47.160Z,71.20
2022-08-19T08:19:25.447Z,71.70
2022-08-19T08:21:57.046Z,71.00
2022-08-19T08:24:28.533Z,72.20
2022-08-19T08:26:58.072Z,71.70
2022-08-19T08:29:27.071Z,72.10
2022-08-19T08:32:03.080Z,71.70
2022-08-19T08:34:30.491Z,71.80
2022-08-19T08:36:58.048Z,71.20
2022-08-19T08:39:25.296Z,71.40
2022-08-19T08:42:10.066Z,70.90
2022-08-19T08:45:00.589Z,71.50
2022-08-19T08:47:33.453Z,71.30
2022-08-19T08:50:05.072Z,71.20
2022-08-19T08:52:37.170Z,69.90
2022-08-19T08:55:13.647Z,69.30
2022-08-19T08:57:50.152Z,69.00
2022-08-19T09:00:28.686Z,68.30
2022-08-19T09:02:59.290Z,67.20
2022-08-19T09:05:48.344Z,65.30
2022-08-19T09:08:24.976Z,65.30
2022-08-19T09:10:55.799Z,63.60
2022-08-19T09:13:41.937Z,62.00
2022-08-19T09:16:14.381Z,62.20
2022-08-19T09:18:42.234Z,62.50
2022-08-19T09:21:10.094Z,61.40
2022-08-19T09:23:38.209Z,60.20
2022-08-19T09:26:16.392Z,59.80
2022-08-19T09:28:48.799Z,60.70
2022-08-19T09:31:19.822Z,61.20
2022-08-19T09:33:48.713Z,60.30
2022-08-19T09:36:34.366Z,60.80
2022-08-19T09:39:02.665Z,60.20
2022-08-19T09:41:30.186Z,59.80
2022-08-19T09:43:59.982Z,57.70
2022-08-19T09:46:30.117Z,58.10
2022-08-19T09:49:06.161Z,58.90
2022-08-19T09:51:35.014Z,57.70
2022-08-19T09:54:04.768Z,57.40
2022-08-19T09:56:34.259Z,58.20
2022-08-19T09:59:04.808Z,58.70
2022-08-19T10:01:33.377Z,57.30
2022-08-19T10:04:06.417Z,57.70
2022-08-19T10:06:46.854Z,57.00
2022-08-19T10:09:16.584Z,57.70
2022-08-19T10:11:54.535Z,60.20
2022-08-19T10:14:24.747Z,58.10
2022-08-19T10:16:53.120Z,58.00
2022-08-19T10:19:25.790Z,57.20
2022-08-19T10:21:58.643Z,55.90
2022-08-19T10:24:29.306Z,56.30
2022-08-19T10:26:57.286Z,57.30
2022-08-19T10:29:32.924Z,57.10
2022-08-19T10:32:09.548Z,56.00
2022-08-19T10:34:48.825Z,54.80
2022-08-19T10:37:23.827Z,55.00
2022-08-19T10:39:56.556Z,54.20
2022-08-19T10:42:23.995Z,54.80
2022-08-19T10:44:51.992Z,54.60
2022-08-19T10:47:25.870Z,54.40
2022-08-19T10:50:15.493Z,54.90
2022-08-19T10:52:49.046Z,53.20
2022-08-19T10:55:38.382Z,53.70
2022-08-19T10:58:06.048Z,53.20
2022-08-19T11:00:33.902Z,52.60
2022-08-19T11:03:01.249Z,52.90
2022-08-19T11:05:28.602Z,52.60
2022-08-19T11:07:57.399Z,53.40
2022-08-19T11:10:25.122Z,54.20
2022-08-19T11:12:56.104Z,54.20
2022-08-19T11:15:23.779Z,55.80
2022-08-19T11:17:55.347Z,56.10
2022-08-19T11:20:24.859Z,55.90
2022-08-19T11:22:54.939Z,57.00
2022-08-19T11:25:23.128Z,57.40
2022-08-19T11:27:52.951Z,56.90
2022-08-19T11:30:20.506Z,57.80
2022-08-19T11:32:49.638Z,57.50
2022-08-19T11:35:17.998Z,57.40
2022-08-19T11:37:45.537Z,57.70
2022-08-19T11:40:13.560Z,58.40
2022-08-19T11:42:59.476Z,57.90
2022-08-19T11:45:29.240Z,58.20
2022-08-19T11:47:57.416Z,58.80
2022-08-19T11:50:25.615Z,58.80
2022-08-19T11:52:56.602Z,59.10
2022-08-19T11:55:24.797Z,59.90
2022-08-19T11:57:52.380Z,60.10
2022-08-19T12:00:20.029Z,61.40
2022-08-19T12:02:47.341Z,62.70
2022-08-19T12:05:14.775Z,64.30
2022-08-19T12:07:42.873Z,64.30
2022-08-19T12:10:10.873Z,63.80
2022-08-19T12:12:43.858Z,62.10
2022-08-19T12:15:15.548Z,61.80
2022-08-19T12:17:43.626Z,60.10
2022-08-19T12:20:14.789Z,60.20
2022-08-19T12:22:42.514Z,59.80
2022-08-19T12:25:12.344Z,59.40
2022-08-19T12:27:41.684Z,60.20
2022-08-19T12:30:13.451Z,58.70
2022-08-19T12:32:41.322Z,58.00
2022-08-19T12:35:12.611Z,58.40
2022-08-19T12:37:45.610Z,58.30
2022-08-19T12:40:26.637Z,58.60
2022-08-19T12:42:55.654Z,58.40
2022-08-19T12:45:23.681Z,58.90
2022-08-19T12:47:51.215Z,59.20
2022-08-19T12:50:22.769Z,58.60
2022-08-19T12:52:50.135Z,59.00
2022-08-19T12:55:19.858Z,59.80
2022-08-19T12:57:47.343Z,59.70
2022-08-19T13:00:18.953Z,59.30
2022-08-19T13:02:48.343Z,59.90
2022-08-19T13:05:17.268Z,60.20
2022-08-19T13:07:45.201Z,58.60
2022-08-19T13:10:17.154Z,59.10
2022-08-19T13:12:46.026Z,58.30
2022-08-19T13:15:15.218Z,59.20
2022-08-19T13:17:43.465Z,58.40
2022-08-19T13:20:12.496Z,59.70
2022-08-19T13:22:40.175Z,59.00
2022-08-19T13:25:08.975Z,59.70
2022-08-19T13:27:37.901Z,59.60
2022-08-19T13:30:26.115Z,58.90
2022-08-19T13:33:12.550Z,59.40
2022-08-19T13:35:48.470Z,60.00
2022-08-19T13:38:21.817Z,58.80
2022-08-19T13:40:51.644Z,59.30
2022-08-19T13:43:23.352Z,59.80
2022-08-19T13:45:55.035Z,60.10
2022-08-19T13:48:22.902Z,60.00
2022-08-19T13:50:50.665Z,60.40
2022-08-19T13:53:19.272Z,60.60
2022-08-19T13:55:46.907Z,61.30
2022-08-19T13:58:14.729Z,60.60
2022-08-19T14:00:46.139Z,61.00
2022-08-19T14:03:14.215Z,61.50
2022-08-19T14:05:41.710Z,61.50
2022-08-19T14:08:10.633Z,61.60
2022-08-19T14:10:37.939Z,61.40
2022-08-19T14:13:05.919Z,60.50
2022-08-19T14:15:33.759Z,61.60
2022-08-19T14:18:01.225Z,60.90
2022-08-19T14:20:29.506Z,60.30
2022-08-19T14:22:57.237Z,60.30
2022-08-19T14:25:27.931Z,61.00
2022-08-19T14:27:56.295Z,61.00
2022-08-19T14:30:30.507Z,60.60
2022-08-19T14:32:59.637Z,61.40
2022-08-19T14:35:31.564Z,61.50
2022-08-19T14:37:59.357Z,60.90
2022-08-19T14:40:29.136Z,61.30
2022-08-19T14:43:05.866Z,61.00
2022-08-19T14:45:38.290Z,60.90
2022-08-19T14:48:07.415Z,61.10
2022-08-19T14:50:38.015Z,61.10
2022-08-19T14:53:12.724Z,60.60
2022-08-19T14:55:44.366Z,60.90
2022-08-19T14:58:29.543Z,61.20
2022-08-19T15:01:00.861Z,61.60
2022-08-19T15:03:29.581Z,61.70
2022-08-19T15:05:59.108Z,61.90
2022-08-19T15:08:27.754Z,61.10
2022-08-19T15:10:55.606Z,61.50
2022-08-19T15:13:23.464Z,61.40
2022-08-19T15:15:50.789Z,61.40
2022-08-19T15:18:18.269Z,61.50
2022-08-19T15:20:46.605Z,62.00
2022-08-19T15:23:16.042Z,62.40
2022-08-19T15:25:43.737Z,65.70
2022-08-19T15:28:16.563Z,68.50
2022-08-19T15:30:44.878Z,71.50
2022-08-19T15:33:15.692Z,71.20
2022-08-19T15:35:45.206Z,74.90
2022-08-19T15:38:14.148Z,78.60
2022-08-19T15:40:42.999Z,80.60
2022-08-19T15:43:10.853Z,84.50
2022-08-19T15:45:38.309Z,91.70
2022-08-19T15:48:06.420Z,92.20
2022-08-19T15:50:34.364Z,92.20
2022-08-19T15:53:05.404Z,92.20
2022-08-19T15:55:35.317Z,92.20
2022-08-19T15:58:28.780Z,92.20
2022-08-19T16:01:21.497Z,92.20
2022-08-19T16:04:13.808Z,92.20
2022-08-19T16:06:51.469Z,92.20
2022-08-19T16:09:26.433Z,92.20
2022-08-19T16:11:57.259Z,92.20
2022-08-19T16:14:30.281Z,92.20
2022-08-19T16:16:57.764Z,92.20
2022-08-19T16:19:25.819Z,92.20
2022-08-19T16:21:56.268Z,92.20
2022-08-19T16:24:26.867Z,92.20
2022-08-19T16:26:55.277Z,92.20
2022-08-19T16:29:34.683Z,92.20
2022-08-19T16:32:10.702Z,92.20
2022-08-19T16:34:41.324Z,92.20
2022-08-19T16:37:09.840Z,92.20
2022-08-19T16:39:37.342Z,92.20
2022-08-19T16:42:07.447Z,92.20
2022-08-19T16:44:37.647Z,92.20
2022-08-19T16:47:05.033Z,92.20
2022-08-19T16:49:53.620Z,92.20
2022-08-19T16:52:20.538Z,92.20
2022-08-19T16:54:52.131Z,92.20
2022-08-19T16:57:19.818Z,92.20
2022-08-19T16:59:49.210Z,92.20
2022-08-19T17:02:19.853Z,92.20
2022-08-19T17:04:58.189Z,92.20
2022-08-19T17:07:28.436Z,92.20
2022-08-19T17:09:57.017Z,92.20
2022-08-19T17:12:31.997Z,92.20
2022-08-19T17:15:04.307Z,92.20
2022-08-19T17:17:32.770Z,92.20
2022-08-19T17:20:01.451Z,92.20
2022-08-19T17:22:29.258Z,92.20
2022-08-19T17:24:57.958Z,92.20
2022-08-19T17:27:26.710Z,92.20
2022-08-19T17:30:00.306Z,92.20
2022-08-19T17:32:27.949Z,92.20
2022-08-19T17:34:55.328Z,92.20
2022-08-19T17:37:23.214Z,92.20
2022-08-19T17:39:50.668Z,92.20
2022-08-19T17:42:18.251Z,92.20
2022-08-19T17:44:48.632Z,92.20
2022-08-19T17:47:19.831Z,92.20
2022-08-19T17:49:47.357Z,92.20
2022-08-19T17:52:15.145Z,92.20
2022-08-19T17:54:42.769Z,92.20
2022-08-19T17:57:10.461Z,92.20
2022-08-19T17:59:37.873Z,92.20
2022-08-19T18:02:07.411Z,92.20
2022-08-19T18:04:38.566Z,92.20
2022-08-19T18:07:06.740Z,92.20
2022-08-19T18:09:41.461Z,92.20
2022-08-19T18:12:13.100Z,92.20
2022-08-19T18:14:41.479Z,92.20
2022-08-19T18:17:17.464Z,92.20
2022-08-19T18:19:46.753Z,92.20
2022-08-19T18:22:30.079Z,92.20
2022-08-19T18:24:59.377Z,92.20
2022-08-19T18:27:28.406Z,92.20
2022-08-19T18:29:59.919Z,92.20
2022-08-19T18:32:35.422Z,92.20
2022-08-19T18:35:07.065Z,92.20
2022-08-19T18:37:34.380Z,92.20
2022-08-19T18:40:20.581Z,92.20
2022-08-19T18:43:23.343Z,92.20
2022-08-19T18:46:09.881Z,92.20
2022-08-19T18:48:58.199Z,92.20
2022-08-19T18:51:30.653Z,92.20
2022-08-19T18:53:59.164Z,92.20
2022-08-19T18:56:31.982Z,92.20
2022-08-19T18:59:00.979Z,92.20
2022-08-19T19:01:34.935Z,92.20
2022-08-19T19:04:06.046Z,92.20
2022-08-19T19:06:38.338Z,92.20
2022-08-19T19:09:10.852Z,92.20
2022-08-19T19:11:44.286Z,92.20
2022-08-19T19:14:32.498Z,92.20
2022-08-19T19:17:03.796Z,92.20
2022-08-19T19:19:32.787Z,92.20
2022-08-19T19:22:02.439Z,92.20
2022-08-19T19:24:33.004Z,92.20
2022-08-19T19:27:06.855Z,92.20
2022-08-19T19:29:38.001Z,92.20
2022-08-19T19:32:18.095Z,92.20
2022-08-19T19:34:45.900Z,92.20
2022-08-19T19:37:13.254Z,92.20
2022-08-19T19:39:46.257Z,92.20
2022-08-19T19:42:20.530Z,92.20
2022-08-19T19:44:51.337Z,92.20
2022-08-19T19:47:20.006Z,92.20
2022-08-19T19:52:40.408Z,92.20
2022-08-19T19:55:09.780Z,92.20
2022-08-19T19:57:40.321Z,92.20
2022-08-19T20:00:10.106Z,92.20
2022-08-19T20:02:37.382Z,92.20
2022-08-19T20:05:05.937Z,92.20
2022-08-19T20:07:52.248Z,92.20
2022-08-19T20:10:19.680Z,92.20
2022-08-19T20:12:47.026Z,92.20
2022-08-19T20:15:15.211Z,92.20
2022-08-19T20:17:43.549Z,92.20
2022-08-19T20:20:15.809Z,92.20
2022-08-19T20:22:44.052Z,92.20
2022-08-19T20:25:12.592Z,92.20
2022-08-19T20:27:40.719Z,92.20
2022-08-19T20:30:19.221Z,92.20
2022-08-19T20:32:48.157Z,92.20
2022-08-19T20:35:18.971Z,92.20
2022-08-19T20:37:46.306Z,92.20
2022-08-19T20:40:14.763Z,92.20
2022-08-19T20:42:43.802Z,92.20
2022-08-19T20:45:32.048Z,92.20
2022-08-19T20:48:02.832Z,92.20
2022-08-19T20:50:31.897Z,92.20
2022-08-19T20:52:59.557Z,92.20
2022-08-19T20:55:27.587Z,92.20
2022-08-19T20:57:55.557Z,92.20
2022-08-19T21:00:23.019Z,92.20
2022-08-19T21:02:50.383Z,92.20
2022-08-19T21:05:17.841Z,92.20
2022-08-19T21:07:45.209Z,92.20
2022-08-19T21:10:12.742Z,92.20
2022-08-19T21:12:40.894Z,92.20
2022-08-19T21:15:08.759Z,92.20
2022-08-19T21:17:36.137Z,92.20
2022-08-19T21:20:05.317Z,92.20
2022-08-19T21:22:32.756Z,92.20
2022-08-19T21:25:00.134Z,92.20
2022-08-19T21:27:27.796Z,92.20
2022-08-19T21:29:55.323Z,92.20
2022-08-19T21:32:23.933Z,92.20
2022-08-19T21:34:53.283Z,92.20
2022-08-19T21:37:25.691Z,92.20
2022-08-19T21:39:55.013Z,92.20
2022-08-19T21:42:23.506Z,92.20
2022-08-19T21:44:51.010Z,92.20
2022-08-19T21:47:18.433Z,92.20
2022-08-19T21:49:46.370Z,92.20
2022-08-19T21:52:14.419Z,92.20
2022-08-19T21:54:42.468Z,92.20
2022-08-19T21:57:10.494Z,92.20
2022-08-19T21:59:43.542Z,92.20
2022-08-19T22:02:21.728Z,92.20
2022-08-19T22:04:53.773Z,92.20
2022-08-19T22:07:22.245Z,92.20
2022-08-19T22:09:51.199Z,92.20
2022-08-19T22:12:28.755Z,92.20
2022-08-19T22:14:57.381Z,92.20
2022-08-19T22:17:27.701Z,92.20
2022-08-19T22:19:56.646Z,92.20
2022-08-19T22:22:30.762Z,92.20
2022-08-19T22:25:31.611Z,92.20
2022-08-19T22:28:05.599Z,92.20
2022-08-19T22:30:35.378Z,92.20
2022-08-19T22:33:06.583Z,92.20
2022-08-19T22:35:38.035Z,92.20
2022-08-19T22:38:07.622Z,92.20
2022-08-19T22:40:37.190Z,92.20
2022-08-19T22:43:09.089Z,92.20
2022-08-19T22:45:37.136Z,92.20
2022-08-19T22:48:09.509Z,92.20
2022-08-19T22:50:38.738Z,92.20
2022-08-19T22:53:08.478Z,92.20
2022-08-19T22:55:37.723Z,92.20
2022-08-19T22:58:05.908Z,92.20
2022-08-19T23:00:33.792Z,92.20
2022-08-19T23:03:02.527Z,92.20
2022-08-19T23:05:30.737Z,92.20
2022-08-19T23:07:59.051Z,92.20
2022-08-19T23:10:29.272Z,92.20
2022-08-19T23:12:59.384Z,92.20
2022-08-19T23:15:30.381Z,92.20
2022-08-19T23:18:01.072Z,92.20
2022-08-19T23:20:32.949Z,92.20
2022-08-19T23:23:04.468Z,92.20
2022-08-19T23:25:33.983Z,92.20
2022-08-19T23:28:20.579Z,92.20
2022-08-19T23:30:49.869Z,92.20
2022-08-19T23:33:24.647Z,92.20
2022-08-19T23:36:00.848Z,92.20
2022-08-19T23:38:32.344Z,92.20
2022-08-19T23:41:03.355Z,92.20
2022-08-19T23:43:32.067Z,92.20
2022-08-19T23:46:03.460Z,92.20
2022-08-19T23:48:40.042Z,92.20
2022-08-19T23:51:10.731Z,92.20
2022-08-19T23:53:40.455Z,92.20
2022-08-19T23:56:09.501Z,92.20
2022-08-19T23:58:37.972Z,92.20
